Time;durP1;ratioP1;P1;durP2;ratioP2;P2;SDS_P1;SDS_P2;PMS_P1;PMS_P2;Temp;Humidity;BMP_temperature;BMP_pressure;BME280_temperature;BME280_humidity;BME280_pressure;Samples;Min_cycle;Max_cycle;Signal;HPM_P1;HPM_P2
2023/05/27 00:01:00;;;;;;;3.83;2.72;;;;;;;17.62;70.21;99575.31;3153639;28;20048;-68
2023/05/27 00:02:32;;;;;;;6.85;2.78;;;;;;;17.63;69.89;99575.22;3158837;28;20044;-67
2023/05/27 00:04:04;;;;;;;7.22;2.22;;;;;;;17.65;69.80;99585.63;3151408;28;20040;-68
2023/05/27 00:05:36;;;;;;;4.95;2.90;;;;;;;17.66;69.46;99572.34;3145697;28;20048;-67
2023/05/27 00:07:09;;;;;;;7.55;2.70;;;;;;;17.65;69.58;99568.03;3149866;28;20040;-68
2023/05/27 00:08:41;;;;;;;6.85;2.55;;;;;;;17.65;69.63;99570.66;3158456;28;20044;-67
2023/05/27 00:10:13;;;;;;;6.35;3.03;;;;;;;17.68;69.44;99566.94;3157775;28;20048;-68
2023/05/27 00:11:44;;;;;;;4.50;3.13;;;;;;;17.70;69.19;99560.59;3151120;28;20110;-67
2023/05/27 00:13:15;;;;;;;6.45;2.70;;;;;;;17.67;69.15;99563.47;3145163;28;20052;-68
2023/05/27 00:14:47;;;;;;;4.68;2.67;;;;;;;17.54;69.20;99544.34;3134722;28;20057;-67
2023/05/27 00:16:19;;;;;;;6.78;2.67;;;;;;;17.65;69.03;99565.38;3145738;28;20052;-67
2023/05/27 00:17:51;;;;;;;6.85;3.30;;;;;;;17.68;69.15;99569.56;3145107;28;20571;-68
2023/05/27 00:19:23;;;;;;;6.38;3.20;;;;;;;17.69;69.08;99572.09;3146376;28;20075;-69
2023/05/27 00:20:54;;;;;;;6.20;2.47;;;;;;;17.73;68.83;99567.44;3152398;28;20080;-68
2023/05/27 00:22:28;;;;;;;8.57;3.08;;;;;;;17.77;68.65;99562.75;3145810;28;20060;-69
2023/05/27 00:23:59;;;;;;;6.38;3.00;;;;;;;17.76;68.89;99567.19;3156598;28;20078;-69
2023/05/27 00:25:31;;;;;;;4.93;2.75;;;;;;;17.74;68.65;99558.56;3148078;28;20098;-69
2023/05/27 00:27:03;;;;;;;9.70;3.17;;;;;;;17.80;68.78;99562.53;3145375;28;20044;-69
2023/05/27 00:28:35;;;;;;;3.33;2.40;;;;;;;17.81;68.50;99557.16;3147179;28;20136;-68
2023/05/27 00:30:08;;;;;;;7.43;2.83;;;;;;;17.83;68.63;99552.59;3141849;28;20056;-68
2023/05/27 00:31:40;;;;;;;7.72;2.50;;;;;;;17.79;68.53;99551.19;3153047;28;20063;-69
2023/05/27 00:33:12;;;;;;;9.43;2.97;;;;;;;17.82;68.51;99548.28;3151351;28;20441;-69
2023/05/27 00:34:45;;;;;;;3.97;2.90;;;;;;;17.83;68.44;99554.41;3145461;28;20060;-69
2023/05/27 00:36:18;;;;;;;6.68;3.10;;;;;;;17.83;68.57;99549.13;3145661;28;20068;-69
2023/05/27 00:37:50;;;;;;;4.45;2.53;;;;;;;17.80;68.53;99550.19;3145715;28;20051;-69
2023/05/27 00:39:22;;;;;;;9.18;2.72;;;;;;;17.76;68.72;99540.84;3149540;28;20236;-68
2023/05/27 00:40:54;;;;;;;3.90;2.70;;;;;;;17.83;68.76;99544.69;3149636;28;20440;-69
2023/05/27 00:42:25;;;;;;;5.40;2.88;;;;;;;17.82;68.27;99540.41;3145907;28;20056;-69
2023/05/27 00:43:57;;;;;;;5.82;3.17;;;;;;;17.81;68.45;99538.72;3146873;28;20047;-69
2023/05/27 00:45:28;;;;;;;7.15;3.03;;;;;;;17.81;68.71;99532.63;3146459;28;20548;-69
2023/05/27 00:47:00;;;;;;;6.35;3.03;;;;;;;17.81;68.59;99532.63;3157306;28;20062;-69
2023/05/27 00:48:32;;;;;;;5.88;2.78;;;;;;;17.77;68.78;99529.34;3133615;28;20114;-69
2023/05/27 00:50:05;;;;;;;5.93;2.90;;;;;;;17.78;68.64;99531.06;3144727;28;20584;-68
2023/05/27 00:51:37;;;;;;;6.07;2.95;;;;;;;17.77;68.72;99542.50;3145542;28;20048;-69
2023/05/27 00:53:10;;;;;;;4.60;2.85;;;;;;;17.76;68.71;99535.59;3156049;28;20079;-68
2023/05/27 00:54:42;;;;;;;;;;;;;;;17.58;68.91;99534.41;3151165;28;20067;-68
2023/05/27 00:56:15;;;;;;;5.90;3.15;;;;;;;17.63;68.96;99535.72;3141250;28;19936;-68
2023/05/27 00:57:45;;;;;;;4.20;2.80;;;;;;;17.68;68.89;99535.34;3145237;28;20135;-68
2023/05/27 00:59:18;;;;;;;5.20;3.00;;;;;;;17.71;68.78;99537.72;3142831;28;20048;-68
2023/05/27 01:00:50;;;;;;;3.45;2.50;;;;;;;17.72;68.65;99534.16;3145296;28;20676;-68
2023/05/27 01:02:24;;;;;;;4.47;2.55;;;;;;;17.74;68.30;99530.41;3150745;28;20050;-69
2023/05/27 01:03:56;;;;;;;3.42;2.50;;;;;;;17.76;68.27;99527.69;3152596;28;20799;-69
2023/05/27 01:05:29;;;;;;;7.88;3.42;;;;;;;17.76;68.22;99524.22;3145303;28;20131;-68
2023/05/27 01:07:09;;;;;;;3.97;2.53;;;;;;;17.70;67.97;99512.38;3145198;28;20501;-69
2023/05/27 01:08:49;;;;;;;3.90;2.30;;;;;;;17.82;67.76;99524.59;3145007;28;20548;-68
2023/05/27 01:10:26;;;;;;;4.40;2.35;;;;;;;17.84;67.83;99527.13;3145173;28;20052;-68
2023/05/27 01:12:03;;;;;;;6.05;2.50;;;;;;;17.85;67.30;99529.63;3144328;28;20083;-69
2023/05/27 01:13:43;;;;;;;4.10;2.35;;;;;;;17.86;67.41;99528.63;3142911;28;20072;-68
2023/05/27 01:15:16;;;;;;;3.92;2.30;;;;;;;17.88;67.32;99525.91;3137229;28;20052;-69
2023/05/27 01:16:50;;;;;;;3.67;2.10;;;;;;;17.88;67.08;99524.09;3146538;28;20048;-68
2023/05/27 01:18:29;;;;;;;6.63;2.60;;;;;;;17.94;66.83;99526.25;3145030;28;20036;-69
2023/05/27 01:20:02;;;;;;;4.72;2.40;;;;;;;17.93;67.01;99524.56;3145072;28;20052;-70
2023/05/27 01:21:39;;;;;;;5.70;2.38;;;;;;;17.99;66.64;99535.59;3148336;28;20036;-69
2023/05/27 01:23:12;;;;;;;4.05;2.38;;;;;;;18.02;66.64;99540.63;3156930;28;20055;-69
2023/05/27 01:24:44;;;;;;;;;;;;;;;17.86;66.88;99539.19;3153232;28;20048;-68
2023/05/27 01:26:16;;;;;;;3.15;2.38;;;;;;;17.89;66.98;99531.03;3155932;28;19928;-69
2023/05/27 01:27:48;;;;;;;5.15;2.65;;;;;;;18.01;66.73;99538.91;3145093;28;20044;-68
2023/05/27 01:29:21;;;;;;;4.70;2.42;;;;;;;18.01;66.39;99538.91;3137556;28;20049;-69
2023/05/27 01:30:59;;;;;;;3.15;2.20;;;;;;;18.04;66.27;99533.41;3144886;28;20052;-68
2023/05/27 01:32:40;;;;;;;5.18;2.15;;;;;;;18.08;66.26;99534.84;3132798;28;20147;-68
2023/05/27 01:34:18;;;;;;;4.15;2.47;;;;;;;18.11;66.09;99526.69;3133390;28;20048;-68
2023/05/27 01:35:52;;;;;;;7.05;2.80;;;;;;;18.11;65.93;99535.44;3156820;28;20070;-68
2023/05/27 01:37:26;;;;;;;3.38;2.28;;;;;;;18.13;65.94;99527.38;3145153;28;20048;-68
2023/05/27 01:39:01;;;;;;;5.20;2.22;;;;;;;18.13;65.76;99515.06;3144575;28;20518;-68
2023/05/27 01:40:34;;;;;;;5.88;2.25;;;;;;;18.13;65.69;99522.97;3132732;28;20053;-68
2023/05/27 01:42:06;;;;;;;;;;;;;;;17.96;66.05;99524.31;3154719;28;20052;-68
2023/05/27 01:43:40;;;;;;;4.28;2.35;;;;;;;18.03;66.12;99516.75;3149172;28;20016;-68
2023/05/27 01:45:12;;;;;;;;;;;;;;;17.90;66.34;99522.19;3143519;28;20048;-68
2023/05/27 01:46:44;;;;;;;4.68;1.98;;;;;;;18.00;66.02;99517.00;3155229;28;19924;-68
2023/05/27 01:48:16;;;;;;;2.95;2.25;;;;;;;18.05;65.87;99527.19;3147719;28;20177;-68
2023/05/27 01:49:47;;;;;;;8.68;2.72;;;;;;;18.12;65.66;99520.44;3153518;28;20048;-68
2023/05/27 01:51:19;;;;;;;2.92;2.20;;;;;;;18.16;65.47;99520.09;3152170;28;20044;-68
2023/05/27 01:52:51;;;;;;;3.22;2.08;;;;;;;18.18;65.43;99514.69;3144710;28;20052;-68
2023/05/27 01:54:24;;;;;;;5.85;2.47;;;;;;;18.24;65.12;99518.63;3147522;28;20055;-68
2023/05/27 01:55:55;;;;;;;4.20;2.00;;;;;;;18.20;65.19;99515.41;3150919;28;20048;-68
2023/05/27 01:57:27;;;;;;;7.32;2.05;;;;;;;18.24;65.23;99519.44;3149938;28;20565;-68
2023/05/27 01:58:59;;;;;;;6.90;2.22;;;;;;;18.23;64.96;99520.44;3143196;28;20063;-68
2023/05/27 02:00:31;;;;;;;3.25;2.20;;;;;;;18.26;65.01;99519.34;3144704;28;20056;-69
2023/05/27 02:02:01;;;;;;;4.43;1.85;;;;;;;18.26;64.88;99522.81;3147618;28;20056;-68
2023/05/27 02:03:33;;;;;;;3.83;2.20;;;;;;;18.28;64.72;99520.91;3155053;28;20058;-68
2023/05/27 02:05:06;;;;;;;5.97;2.15;;;;;;;18.29;64.65;99516.44;3146234;28;20104;-68
2023/05/27 02:06:38;;;;;;;6.57;3.33;;;;;;;18.27;64.56;99513.09;3156977;28;20425;-68
2023/05/27 02:08:10;;;;;;;5.50;2.35;;;;;;;18.29;64.51;99517.28;3152426;28;20102;-68
2023/05/27 02:09:43;;;;;;;7.82;2.80;;;;;;;18.35;64.33;99523.84;3144547;28;20521;-68
2023/05/27 02:11:15;;;;;;;3.42;2.17;;;;;;;18.34;64.50;99515.13;3157038;28;20052;-68
2023/05/27 02:12:47;;;;;;;7.50;2.53;;;;;;;18.37;64.26;99514.03;3144778;28;20048;-68
2023/05/27 02:14:19;;;;;;;10.07;2.53;;;;;;;18.36;64.10;99518.44;3137204;28;20045;-68
2023/05/27 02:15:50;;;;;;;3.53;2.45;;;;;;;18.38;63.97;99511.25;3142600;28;20084;-68
2023/05/27 02:17:24;;;;;;;5.30;2.63;;;;;;;18.38;64.00;99505.16;3154218;28;20505;-68
2023/05/27 02:18:56;;;;;;;4.38;2.20;;;;;;;18.39;63.94;99507.66;3147704;28;20054;-68
2023/05/27 02:20:29;;;;;;;3.33;2.13;;;;;;;18.38;63.96;99505.16;3144488;28;20051;-68
2023/05/27 02:21:59;;;;;;;3.53;2.30;;;;;;;18.40;64.01;99509.34;3144650;28;20063;-68
2023/05/27 02:23:31;;;;;;;6.28;2.13;;;;;;;18.38;63.83;99503.34;3151356;28;20052;-68
2023/05/27 02:25:05;;;;;;;3.90;2.22;;;;;;;18.45;63.98;99508.13;3157059;28;20048;-68
2023/05/27 02:26:37;;;;;;;3.88;2.20;;;;;;;18.45;63.89;99505.47;3151388;28;20079;-68
2023/05/27 02:28:07;;;;;;;5.10;2.38;;;;;;;18.44;63.98;99498.53;3149239;28;20048;-68
2023/05/27 02:29:39;;;;;;;4.15;2.42;;;;;;;18.45;64.03;99502.84;3144842;28;20044;-69
2023/05/27 02:31:11;;;;;;;3.50;2.53;;;;;;;18.45;63.91;99513.38;3156528;28;20052;-68
2023/05/27 02:32:42;;;;;;;2.75;1.90;;;;;;;18.44;64.04;99507.28;3153828;28;20550;-68
2023/05/27 02:34:14;;;;;;;5.00;2.42;;;;;;;18.45;63.84;99500.19;3135740;28;20045;-68
2023/05/27 02:35:46;;;;;;;5.03;1.88;;;;;;;18.46;63.71;99500.09;3144556;28;20053;-69
2023/05/27 02:37:17;;;;;;;4.07;1.83;;;;;;;18.45;64.04;99505.47;3144423;28;20044;-70
2023/05/27 02:38:48;;;;;;;3.17;1.90;;;;;;;18.44;63.83;99503.81;3132167;28;20048;-69
2023/05/27 02:40:29;;;;;;;5.53;2.33;;;;;;;18.42;63.70;99502.13;3143661;28;20044;-69
2023/05/27 02:42:00;;;;;;;4.57;2.58;;;;;;;18.37;64.13;99501.69;3155245;28;20052;-68
2023/05/27 02:43:32;;;;;;;5.47;2.17;;;;;;;18.36;63.92;99502.63;3150524;28;20048;-68
2023/05/27 02:45:05;;;;;;;3.20;1.95;;;;;;;18.37;64.02;99504.31;3142973;28;20044;-67
2023/05/27 02:46:37;;;;;;;7.80;2.55;;;;;;;18.35;64.01;99511.50;3154535;28;20044;-68
2023/05/27 02:48:08;;;;;;;5.90;2.03;;;;;;;18.22;63.95;99492.41;3156391;28;20055;-68
2023/05/27 02:49:40;;;;;;;3.78;1.95;;;;;;;18.33;64.09;99509.97;3157108;28;20040;-67
2023/05/27 02:51:11;;;;;;;3.75;2.22;;;;;;;18.34;64.04;99509.84;3148820;28;20045;-68
2023/05/27 02:52:42;;;;;;;4.40;2.30;;;;;;;18.35;63.95;99510.69;3139975;28;20052;-68
2023/05/27 02:54:14;;;;;;;3.40;2.17;;;;;;;18.37;63.84;99506.97;3145743;28;20081;-68
2023/05/27 02:55:47;;;;;;;3.13;2.08;;;;;;;18.41;64.02;99511.00;3136959;28;20052;-68
2023/05/27 02:57:19;;;;;;;;;;;;;;;18.23;64.10;99517.78;3144353;28;20098;-68
2023/05/27 02:58:51;;;;;;;4.85;2.28;;;;;;;18.30;64.12;99518.13;3142145;28;20374;-68
2023/05/27 03:00:23;;;;;;;3.42;2.33;;;;;;;18.33;64.02;99508.16;3146689;28;20135;-68
2023/05/27 03:01:55;;;;;;;3.28;2.03;;;;;;;18.37;63.82;99520.13;3154800;28;20056;-68
2023/05/27 03:03:27;;;;;;;6.13;2.55;;;;;;;18.38;63.88;99511.25;3145381;28;20122;-69
2023/05/27 03:05:00;;;;;;;5.55;2.15;;;;;;;18.38;63.82;99521.81;3156563;28;20048;-68
2023/05/27 03:06:32;;;;;;;6.53;1.98;;;;;;;18.38;64.07;99529.72;3143814;28;20057;-68
2023/05/27 03:08:05;;;;;;;3.53;2.25;;;;;;;18.36;63.86;99513.16;3131918;28;20040;-68
2023/05/27 03:09:37;;;;;;;4.28;2.30;;;;;;;18.35;63.86;99516.78;3140245;28;20056;-68
2023/05/27 03:11:10;;;;;;;3.95;2.22;;;;;;;18.36;63.87;99515.81;3145354;28;20575;-67
2023/05/27 03:12:41;;;;;;;3.85;2.17;;;;;;;18.32;63.98;99514.41;3157553;28;20581;-68
2023/05/27 03:14:13;;;;;;;5.28;2.10;;;;;;;18.35;63.94;99522.06;3140492;28;20102;-66
2023/05/27 03:15:45;;;;;;;5.00;2.20;;;;;;;18.38;63.67;99526.25;3143167;28;20456;-66
2023/05/27 03:17:17;;;;;;;5.60;2.55;;;;;;;18.39;64.00;99525.28;3154976;28;20102;-66
2023/05/27 03:18:49;;;;;;;4.78;2.10;;;;;;;18.41;63.56;99529.47;3150941;28;20048;-67
2023/05/27 03:20:19;;;;;;;3.45;2.30;;;;;;;18.42;63.45;99525.84;3153862;28;20108;-68
2023/05/27 03:21:52;;;;;;;4.95;1.80;;;;;;;18.46;63.62;99536.13;3148517;28;20198;-67
2023/05/27 03:23:23;;;;;;;2.70;1.73;;;;;;;18.47;63.42;99527.28;3152696;28;20083;-67
2023/05/27 03:24:54;;;;;;;2.97;1.98;;;;;;;18.49;63.37;99530.66;3153787;28;20052;-68
2023/05/27 03:26:28;;;;;;;5.72;2.33;;;;;;;18.50;63.15;99522.59;3145960;28;20536;-69
2023/05/27 03:28:00;;;;;;;3.65;2.10;;;;;;;18.52;63.25;99533.03;3146221;28;20139;-67
2023/05/27 03:29:32;;;;;;;5.00;2.10;;;;;;;18.52;62.97;99530.41;3145338;28;20048;-69
2023/05/27 03:31:04;;;;;;;4.60;2.15;;;;;;;18.52;63.37;99528.59;3159092;28;20060;-68
2023/05/27 03:32:35;;;;;;;4.93;1.90;;;;;;;18.52;63.17;99533.03;3156904;28;20044;-68
2023/05/27 03:34:06;;;;;;;2.90;2.20;;;;;;;18.53;63.22;99529.41;3147342;28;20121;-69
2023/05/27 03:35:38;;;;;;;2.50;1.92;;;;;;;18.55;62.90;99530.13;3154877;28;20117;-68
2023/05/27 03:37:10;;;;;;;4.90;2.28;;;;;;;18.54;62.82;99528.44;3159177;28;20503;-69
2023/05/27 03:38:42;;;;;;;6.70;2.25;;;;;;;18.56;62.88;99529.16;3158525;28;20509;-69
2023/05/27 03:40:14;;;;;;;7.30;3.38;;;;;;;18.55;62.89;99532.78;3158503;28;20115;-69
2023/05/27 03:41:48;;;;;;;2.42;1.75;;;;;;;18.56;62.56;99537.06;3147599;28;20049;-68
2023/05/27 03:43:20;;;;;;;6.07;1.95;;;;;;;18.56;62.63;99534.44;3145122;28;20484;-68
2023/05/27 03:44:51;;;;;;;4.88;2.15;;;;;;;18.58;62.59;99538.63;3148521;28;20044;-69
2023/05/27 03:46:22;;;;;;;5.55;1.85;;;;;;;18.57;62.35;99536.94;3158472;28;20075;-67
2023/05/27 03:47:54;;;;;;;5.07;2.50;;;;;;;18.62;62.28;99536.56;3158795;28;20047;-67
2023/05/27 03:49:26;;;;;;;3.67;2.28;;;;;;;18.64;62.21;99543.41;3158823;28;20052;-67
2023/05/27 03:50:58;;;;;;;4.15;1.80;;;;;;;18.68;62.22;99536.06;3148216;28;20460;-66
2023/05/27 03:52:29;;;;;;;3.92;1.75;;;;;;;18.70;61.96;99539.41;3145495;28;20052;-69
2023/05/27 03:54:02;;;;;;;5.88;2.03;;;;;;;18.71;62.03;99535.81;3145573;28;20067;-68
2023/05/27 03:55:34;;;;;;;5.00;2.20;;;;;;;18.72;61.93;99541.91;3136877;28;20080;-68
2023/05/27 03:57:07;;;;;;;3.50;1.83;;;;;;;18.75;61.82;99545.19;3145813;28;20415;-68
2023/05/27 03:58:39;;;;;;;4.28;1.92;;;;;;;18.78;61.99;99549.34;3143790;28;20076;-70
2023/05/27 04:00:11;;;;;;;3.40;1.77;;;;;;;18.77;61.88;99535.31;3145268;28;20048;-70
2023/05/27 04:01:45;;;;;;;4.90;2.38;;;;;;;18.76;61.84;99524.91;3156450;28;20083;-69
2023/05/27 04:03:15;;;;;;;4.18;2.10;;;;;;;18.82;61.63;99548.97;3133871;28;20535;-70
2023/05/27 04:04:47;;;;;;;3.38;2.08;;;;;;;18.83;61.55;99542.72;3145288;28;20056;-69
2023/05/27 04:06:19;;;;;;;5.38;2.15;;;;;;;18.88;61.61;99552.06;3149087;28;20102;-69
2023/05/27 04:07:51;;;;;;;3.75;2.20;;;;;;;18.87;61.56;99553.84;3145922;28;20135;-70
2023/05/27 04:09:23;;;;;;;3.50;2.03;;;;;;;18.89;61.48;99553.72;3146186;28;20054;-70
2023/05/27 04:10:55;;;;;;;3.17;2.05;;;;;;;18.93;61.49;99552.50;3145841;28;20056;-70
2023/05/27 04:12:28;;;;;;;5.75;2.30;;;;;;;18.95;61.30;99558.50;3154375;28;20052;-69
2023/05/27 04:14:00;;;;;;;3.13;2.08;;;;;;;18.94;61.47;99554.19;3145181;28;20045;-69
2023/05/27 04:15:33;;;;;;;3.38;2.15;;;;;;;18.95;61.40;99551.41;3140771;28;20052;-69
2023/05/27 04:17:05;;;;;;;;;;;;;;;18.81;61.69;99557.00;3146310;28;20131;-68
2023/05/27 04:18:37;;;;;;;3.40;1.75;;;;;;;18.89;61.44;99556.38;3156351;28;19919;-68
2023/05/27 04:20:13;;;;;;;3.17;1.75;;;;;;;18.95;61.49;99553.22;3148797;28;20445;-68
2023/05/27 04:21:45;;;;;;;8.10;2.22;;;;;;;18.98;61.31;99555.59;3154807;28;20052;-69
2023/05/27 04:23:17;;;;;;;4.35;2.42;;;;;;;18.94;61.09;99544.47;3158788;28;20127;-68
2023/05/27 04:24:49;;;;;;;4.80;2.15;;;;;;;19.05;61.26;99564.69;3148962;28;20048;-68
2023/05/27 04:26:21;;;;;;;2.55;1.60;;;;;;;19.09;60.81;99553.72;3145485;28;20127;-67
2023/05/27 04:27:53;;;;;;;6.65;1.90;;;;;;;19.13;60.73;99558.75;3152988;28;20079;-67
2023/05/27 04:29:27;;;;;;;4.72;1.77;;;;;;;19.12;60.59;99565.00;3140967;28;20052;-69
2023/05/27 04:30:59;;;;;;;3.20;1.67;;;;;;;19.12;60.50;99557.09;3152567;28;20059;-67
2023/05/27 04:32:32;;;;;;;4.10;2.05;;;;;;;19.14;60.60;99569.19;3158089;28;20056;-69
2023/05/27 04:34:04;;;;;;;;;;;;;;;18.98;60.83;99560.88;3158609;28;20063;-68
2023/05/27 04:35:35;;;;;;;4.88;1.63;;;;;;;19.05;60.90;99562.06;3148293;28;19929;-68
2023/05/27 04:37:09;;;;;;;4.18;1.85;;;;;;;19.14;60.64;99563.91;3138700;28;20502;-67
2023/05/27 04:38:44;;;;;;;5.95;2.13;;;;;;;19.16;60.72;99561.94;3145445;28;20127;-71
2023/05/27 04:40:16;;;;;;;4.22;1.90;;;;;;;19.20;60.69;99563.38;3145412;28;20044;-67
2023/05/27 04:41:48;;;;;;;3.47;1.85;;;;;;;19.25;60.40;99566.44;3151587;28;20052;-66
2023/05/27 04:43:22;;;;;;;7.20;2.00;;;;;;;19.29;60.50;99564.41;3149894;28;20044;-69
2023/05/27 04:44:54;;;;;;;2.97;1.52;;;;;;;19.30;60.45;99569.53;3157778;28;20051;-66
2023/05/27 04:46:26;;;;;;;4.28;2.33;;;;;;;19.33;60.36;99571.91;3157796;28;20055;-70
2023/05/27 04:48:00;;;;;;;7.97;2.25;;;;;;;19.35;60.31;99563.88;3148875;28;20588;-67
2023/05/27 04:49:34;;;;;;;16.95;8.32;;;;;;;19.38;60.30;99568.91;3152438;28;20131;-66
2023/05/27 04:51:07;;;;;;;13.05;5.03;;;;;;;19.42;60.40;99565.03;3146531;28;20044;-66
2023/05/27 04:52:41;;;;;;;9.60;4.35;;;;;;;19.45;60.16;99575.31;3149754;28;20051;-67
2023/05/27 04:54:13;;;;;;;28.13;14.07;;;;;;;19.48;60.29;99575.06;3155910;28;20051;-68
2023/05/27 04:55:45;;;;;;;19.25;9.07;;;;;;;19.57;60.18;99575.25;3149611;28;20071;-68
2023/05/27 04:57:18;;;;;;;24.13;14.50;;;;;;;19.61;60.01;99580.13;3158140;28;20044;-70
2023/05/27 04:58:51;;;;;;;21.02;12.20;;;;;;;19.66;59.83;99577.13;3142745;28;20080;-67
2023/05/27 05:00:36;;;;;;;4.05;2.55;;;;;;;19.68;59.90;99580.47;3143818;28;20057;-66
2023/05/27 05:02:10;;;;;;;3.05;2.03;;;;;;;19.72;60.06;99576.59;3144716;28;20053;-69
2023/05/27 05:03:51;;;;;;;15.23;2.92;;;;;;;19.73;59.70;99575.63;3145478;28;20521;-66
2023/05/27 05:05:23;;;;;;;19.98;9.18;;;;;;;19.79;59.59;99577.75;3145208;28;20052;-66
2023/05/27 05:06:55;;;;;;;7.28;3.35;;;;;;;19.85;59.45;99582.50;3145166;28;20052;-65
2023/05/27 05:08:27;;;;;;;13.90;9.73;;;;;;;19.92;59.53;99572.22;3155600;28;20075;-66
2023/05/27 05:09:59;;;;;;;10.40;4.75;;;;;;;19.99;59.19;99575.97;3156501;28;20453;-66
2023/05/27 05:11:31;;;;;;;5.65;2.78;;;;;;;20.05;59.14;99580.72;3157843;28;20501;-69
2023/05/27 05:13:03;;;;;;;4.43;2.15;;;;;;;20.10;58.97;99575.03;3157673;28;20052;-74
2023/05/27 05:14:36;;;;;;;3.65;2.38;;;;;;;20.17;58.78;99582.31;3135106;28;20059;-71
2023/05/27 05:16:08;;;;;;;5.55;2.33;;;;;;;20.20;58.85;99586.44;3132593;28;20049;-71
2023/05/27 05:17:40;;;;;;;4.25;2.13;;;;;;;20.20;58.52;99579.38;3144827;28;20048;-68
2023/05/27 05:19:10;;;;;;;5.65;2.63;;;;;;;20.26;58.75;99585.06;3145266;28;20049;-72
2023/05/27 05:20:42;;;;;;;4.50;2.35;;;;;;;20.30;58.43;99581.22;3147571;28;20502;-66
2023/05/27 05:22:14;;;;;;;4.05;2.20;;;;;;;20.30;58.31;99581.22;3144995;28;20064;-69
2023/05/27 05:23:47;;;;;;;8.32;2.20;;;;;;;20.32;58.75;99582.75;3155523;28;20048;-70
2023/05/27 05:25:19;;;;;;;4.43;2.33;;;;;;;20.37;58.63;99587.59;3147821;28;20121;-68
2023/05/27 05:26:50;;;;;;;3.92;2.20;;;;;;;20.40;58.46;99587.34;3144873;28;20512;-65
2023/05/27 05:28:24;;;;;;;6.32;2.35;;;;;;;20.44;58.22;99583.47;3150060;28;20044;-65
2023/05/27 05:29:57;;;;;;;8.15;2.42;;;;;;;20.45;58.37;99585.13;3140596;28;20509;-65
2023/05/27 05:31:29;;;;;;;6.75;2.50;;;;;;;20.49;58.28;99591.78;3144572;28;20513;-64
2023/05/27 05:33:00;;;;;;;5.32;2.42;;;;;;;20.55;58.11;99585.97;3143886;28;20048;-65
2023/05/27 05:34:32;;;;;;;11.32;2.45;;;;;;;20.57;57.67;99584.03;3144588;28;20449;-64
2023/05/27 05:36:05;;;;;;;5.03;2.20;;;;;;;20.61;57.46;99582.78;3149994;28;20501;-63
2023/05/27 05:37:36;;;;;;;4.70;2.05;;;;;;;20.64;57.37;99592.25;3157507;28;20052;-64
2023/05/27 05:39:08;;;;;;;5.18;1.95;;;;;;;20.65;57.25;99586.84;3157234;28;20054;-67
2023/05/27 05:40:39;;;;;;;6.18;2.10;;;;;;;20.67;57.00;99595.47;3157359;28;20071;-65
2023/05/27 05:42:11;;;;;;;5.60;2.33;;;;;;;20.69;56.60;99587.38;3154085;28;20060;-67
2023/05/27 05:43:43;;;;;;;3.45;1.95;;;;;;;20.69;56.28;99592.69;3140571;28;20045;-66
2023/05/27 05:45:16;;;;;;;4.00;2.03;;;;;;;20.67;56.05;99587.53;3139866;28;20410;-67
2023/05/27 05:46:48;;;;;;;11.35;2.60;;;;;;;20.73;56.56;99593.22;3143887;28;20056;-68
2023/05/27 05:48:20;;;;;;;7.25;1.80;;;;;;;20.76;56.23;99592.94;3151539;28;20048;-66
2023/05/27 05:49:52;;;;;;;9.80;2.50;;;;;;;20.80;55.89;99594.38;3154450;28;20040;-68
2023/05/27 05:51:23;;;;;;;9.18;2.80;;;;;;;20.84;55.76;99586.00;3144238;28;20052;-67
2023/05/27 05:52:56;;;;;;;5.18;1.95;;;;;;;20.89;55.38;99586.41;3144251;28;20885;-66
2023/05/27 05:54:27;;;;;;;4.53;2.13;;;;;;;20.95;55.54;99586.84;3147494;28;20063;-66
2023/05/27 05:55:59;;;;;;;3.47;1.90;;;;;;;20.95;55.16;99582.38;3144565;28;20079;-68
2023/05/27 05:57:32;;;;;;;8.07;1.92;;;;;;;20.97;55.24;99591.00;3150599;28;20055;-65
2023/05/27 05:59:03;;;;;;;3.17;1.97;;;;;;;20.94;54.82;99593.09;3144771;28;20049;-68
2023/05/27 06:00:36;;;;;;;6.53;1.90;;;;;;;20.90;54.73;99590.72;3148589;28;20698;-74
2023/05/27 06:02:08;;;;;;;5.40;2.20;;;;;;;20.90;54.65;99595.19;3153133;28;20053;-66
2023/05/27 06:03:40;;;;;;;4.50;1.73;;;;;;;20.92;54.92;99592.41;3146144;28;20479;-70
2023/05/27 06:05:11;;;;;;;2.45;1.77;;;;;;;20.93;54.82;99600.19;3154343;28;20052;-68
2023/05/27 06:06:43;;;;;;;4.75;1.60;;;;;;;20.84;54.60;99586.00;3146025;28;20577;-68
2023/05/27 06:08:15;;;;;;;3.10;1.95;;;;;;;20.92;54.89;99598.53;3155945;28;20047;-64
2023/05/27 06:09:47;;;;;;;1.83;1.38;;;;;;;20.95;54.30;99598.25;3141300;28;20044;-67
2023/05/27 06:11:19;;;;;;;2.40;1.35;;;;;;;20.93;54.25;99600.19;3132434;28;20056;-67
2023/05/27 06:12:51;;;;;;;8.82;1.88;;;;;;;20.95;54.11;99606.19;3133228;28;20056;-66
2023/05/27 06:14:23;;;;;;;4.38;1.52;;;;;;;20.97;53.91;99608.69;3142327;28;20052;-65
2023/05/27 06:15:56;;;;;;;4.78;1.52;;;;;;;20.98;53.45;99602.44;3139435;28;20048;-66
2023/05/27 06:17:28;;;;;;;3.60;1.42;;;;;;;20.94;53.43;99609.81;3146365;28;20543;-66
2023/05/27 06:19:00;;;;;;;2.40;1.15;;;;;;;20.93;53.30;99602.84;3151443;28;20045;-64
2023/05/27 06:20:32;;;;;;;7.15;1.75;;;;;;;20.96;53.41;99609.66;3144498;28;20055;-66
2023/05/27 06:22:04;;;;;;;3.42;1.42;;;;;;;20.96;53.34;99614.97;3148512;28;20628;-67
2023/05/27 06:23:35;;;;;;;20.00;2.95;;;;;;;20.97;53.55;99622.78;3157453;28;20051;-65
2023/05/27 06:25:08;;;;;;;5.75;1.60;;;;;;;20.97;53.61;99622.78;3153134;28;20110;-65
2023/05/27 06:26:40;;;;;;;7.38;2.10;;;;;;;20.97;53.66;99622.78;3144174;28;20110;-65
2023/05/27 06:28:11;;;;;;;3.88;1.90;;;;;;;20.99;53.68;99622.63;3144455;28;20060;-66
2023/05/27 06:29:44;;;;;;;8.27;2.80;;;;;;;21.00;53.88;99616.34;3144329;28;20807;-65
2023/05/27 06:31:17;;;;;;;6.82;1.85;;;;;;;21.00;53.84;99622.50;3151414;28;20044;-70
2023/05/27 06:32:48;;;;;;;4.60;1.90;;;;;;;21.00;54.22;99621.63;3132203;28;20155;-66
2023/05/27 06:34:20;;;;;;;4.55;1.88;;;;;;;21.02;53.94;99614.41;3153407;28;20070;-64
2023/05/27 06:35:51;;;;;;;11.77;2.05;;;;;;;21.02;54.01;99617.03;3155509;28;20048;-64
2023/05/27 06:37:23;;;;;;;4.15;2.08;;;;;;;21.06;53.98;99623.72;3157033;28;20048;-67
2023/05/27 06:38:55;;;;;;;6.88;1.65;;;;;;;21.07;54.17;99614.81;3143852;28;20041;-68
2023/05/27 06:40:27;;;;;;;7.93;2.35;;;;;;;21.08;54.07;99622.59;3150224;28;20559;-67
2023/05/27 06:41:59;;;;;;;5.90;2.28;;;;;;;21.12;54.47;99631.13;3154592;28;20078;-66
2023/05/27 06:43:29;;;;;;;4.82;2.40;;;;;;;21.13;54.54;99627.50;3147772;28;20048;-66
2023/05/27 06:45:01;;;;;;;5.88;2.50;;;;;;;21.15;54.11;99625.56;3141228;28;20044;-69
2023/05/27 06:46:34;;;;;;;12.35;2.63;;;;;;;21.17;54.26;99630.69;3146602;28;20170;-67
2023/05/27 06:48:05;;;;;;;14.23;2.97;;;;;;;21.15;54.73;99625.56;3153037;28;20095;-67
2023/05/27 06:49:40;;;;;;;8.82;2.65;;;;;;;21.18;54.60;99630.56;3155855;28;20058;-67
2023/05/27 06:51:12;;;;;;;10.00;2.83;;;;;;;21.17;54.37;99625.38;3150590;28;20053;-68
2023/05/27 06:52:44;;;;;;;7.75;2.38;;;;;;;21.19;54.52;99634.03;3150811;28;20070;-68
2023/05/27 06:54:16;;;;;;;6.18;3.38;;;;;;;21.18;54.96;99635.00;3156594;28;20052;-68
2023/05/27 06:55:47;;;;;;;5.82;2.70;;;;;;;21.18;54.69;99633.22;3146765;28;20064;-68
2023/05/27 06:57:19;;;;;;;5.80;2.83;;;;;;;21.17;54.81;99638.63;3150726;28;20039;-68
2023/05/27 06:58:50;;;;;;;8.65;2.58;;;;;;;21.14;54.88;99635.28;3150457;28;20053;-68
2023/05/27 07:00:22;;;;;;;6.00;2.67;;;;;;;21.11;55.21;99632.91;3145348;28;20191;-67
2023/05/27 07:01:56;;;;;;;4.38;2.35;;;;;;;21.11;55.36;99634.72;3145360;28;20458;-68
2023/05/27 07:03:27;;;;;;;5.72;2.58;;;;;;;21.09;55.39;99634.88;3146263;28;20202;-68
2023/05/27 07:04:59;;;;;;;4.53;2.70;;;;;;;21.08;55.25;99641.13;3158109;28;20635;-67
2023/05/27 07:06:31;;;;;;;6.75;2.67;;;;;;;21.04;55.36;99631.81;3145521;28;20052;-67
2023/05/27 07:08:02;;;;;;;5.15;2.70;;;;;;;21.02;55.43;99639.06;3156961;28;20048;-67
2023/05/27 07:09:34;;;;;;;11.32;2.85;;;;;;;21.02;55.58;99641.69;3154054;28;20052;-67
2023/05/27 07:11:06;;;;;;;5.60;2.42;;;;;;;21.00;55.56;99637.53;3142491;28;20102;-68
2023/05/27 07:12:38;;;;;;;5.38;2.72;;;;;;;20.99;55.42;99641.16;3150013;28;20104;-67
2023/05/27 07:14:10;;;;;;;7.85;2.55;;;;;;;20.97;55.80;99635.16;3136721;28;20521;-68
2023/05/27 07:15:42;;;;;;;4.55;2.55;;;;;;;20.96;55.91;99639.63;3137235;28;20060;-67